createdAt,value
2023-03-05T00:00:24.022Z,32.60
2023-03-05T00:05:26.859Z,32.60
2023-03-05T00:10:31.029Z,32.60
2023-03-05T00:15:33.868Z,32.60
2023-03-05T00:20:36.812Z,32.60
2023-03-05T00:25:41.941Z,32.70
2023-03-05T00:30:44.779Z,32.50
2023-03-05T00:35:48.133Z,32.40
2023-03-05T00:40:52.713Z,32.40
2023-03-05T00:45:55.561Z,32.30
2023-03-05T00:50:58.436Z,32.30
2023-03-05T00:56:02.640Z,32.30
2023-03-05T01:01:06.056Z,32.30
2023-03-05T01:06:11.573Z,32.30
2023-03-05T01:11:15.874Z,32.40
2023-03-05T01:16:18.813Z,32.40
2023-03-05T01:21:21.998Z,32.30
2023-03-05T01:26:26.216Z,32.30
2023-03-05T01:31:29.108Z,32.20
2023-03-05T01:36:32.191Z,32.20
2023-03-05T01:41:36.458Z,32.20
2023-03-05T01:46:39.754Z,32.20
2023-03-05T01:51:49.244Z,32.20
2023-03-05T01:56:56.868Z,32.30
2023-03-05T02:02:00.599Z,32.20
2023-03-05T02:07:04.427Z,32.20
2023-03-05T02:12:10.168Z,32.10
2023-03-05T02:17:13.791Z,32.00
2023-03-05T02:22:19.722Z,32.00
2023-03-05T02:27:34.693Z,32.00
2023-03-05T02:32:37.594Z,32.00
2023-03-05T02:37:41.924Z,32.00
2023-03-05T02:42:45.033Z,32.00
2023-03-05T02:47:47.915Z,32.10
2023-03-05T02:52:52.091Z,32.10
2023-03-05T02:57:55.219Z,32.10
2023-03-05T03:02:58.112Z,32.00
2023-03-05T03:08:02.316Z,32.00
2023-03-05T03:13:05.165Z,31.90
2023-03-05T03:18:07.993Z,31.90
2023-03-05T03:23:12.148Z,31.90
2023-03-05T03:28:14.995Z,31.90
2023-03-05T03:33:18.251Z,31.90
2023-03-05T03:38:22.458Z,31.90
2023-03-05T03:43:25.339Z,32.00
2023-03-05T03:48:28.297Z,31.90
2023-03-05T03:53:32.498Z,31.90
2023-03-05T03:58:35.440Z,31.90
2023-03-05T04:03:38.326Z,31.90
2023-03-05T04:08:42.605Z,31.80
2023-03-05T04:13:45.466Z,31.80
2023-03-05T04:18:48.475Z,31.80
2023-03-05T04:23:52.747Z,31.80
2023-03-05T04:28:55.625Z,31.80
2023-03-05T04:33:58.459Z,31.80
2023-03-05T04:39:02.695Z,31.80
2023-03-05T04:44:05.908Z,31.80
2023-03-05T04:49:08.750Z,31.80
2023-03-05T04:54:12.963Z,31.80
2023-03-05T04:59:15.829Z,31.90
2023-03-05T05:04:18.695Z,31.90
2023-03-05T05:09:22.876Z,32.00
2023-03-05T05:14:26.061Z,32.00
2023-03-05T05:19:29.034Z,32.00
2023-03-05T05:24:33.269Z,31.70
2023-03-05T05:29:36.188Z,31.70
2023-03-05T05:34:39.084Z,31.60
2023-03-05T05:39:43.261Z,31.60
2023-03-05T05:44:47.538Z,31.60
2023-03-05T05:49:50.378Z,31.60
2023-03-05T05:54:54.558Z,31.60
2023-03-05T05:59:57.483Z,31.60
2023-03-05T06:05:00.368Z,31.70
2023-03-05T06:10:05.878Z,31.60
2023-03-05T06:15:09.923Z,31.60
2023-03-05T06:20:13.607Z,31.70
2023-03-05T06:25:17.894Z,31.80
2023-03-05T06:30:20.955Z,31.80
2023-03-05T06:35:23.829Z,31.70
2023-03-05T06:40:28.084Z,31.80
2023-03-05T06:45:30.870Z,31.70
2023-03-05T06:50:36.074Z,31.60
2023-03-05T06:55:40.592Z,31.40
2023-03-05T07:00:45.178Z,31.40
2023-03-05T07:05:48.026Z,31.40
2023-03-05T07:10:52.215Z,31.40
2023-03-05T07:15:55.267Z,31.50
2023-03-05T07:21:03.317Z,31.40
2023-03-05T07:26:08.262Z,31.50
2023-03-05T07:31:14.910Z,31.50
2023-03-05T07:36:18.906Z,31.40
2023-03-05T07:41:23.887Z,31.40
2023-03-05T07:46:28.789Z,31.50
2023-03-05T07:51:32.029Z,31.50
2023-03-05T07:56:37.218Z,31.40
2023-03-05T08:01:40.276Z,31.30
2023-03-05T08:06:43.511Z,31.20
2023-03-05T08:11:47.727Z,31.20
2023-03-05T08:16:52.150Z,31.20
2023-03-05T08:21:55.669Z,31.20
2023-03-05T08:27:00.633Z,31.30
2023-03-05T08:32:03.509Z,31.20
2023-03-05T08:37:09.046Z,31.20
2023-03-05T08:42:13.204Z,31.20
2023-03-05T08:47:16.346Z,31.30
2023-03-05T08:52:19.203Z,31.30
2023-03-05T08:57:23.358Z,31.30
2023-03-05T09:02:26.364Z,31.40
2023-03-05T09:07:29.198Z,31.50
2023-03-05T09:12:33.365Z,31.40
2023-03-05T09:17:36.601Z,31.50
2023-03-05T09:22:39.582Z,31.30
2023-03-05T09:27:45.311Z,31.20
2023-03-05T09:32:48.268Z,31.70
2023-03-05T09:37:52.518Z,31.10
2023-03-05T09:43:04.903Z,31.10
2023-03-05T09:48:17.773Z,31.20
2023-03-05T09:53:28.693Z,31.40
2023-03-05T09:58:37.906Z,31.50
2023-03-05T10:03:52.717Z,31.80
2023-03-05T10:08:58.187Z,31.90
2023-03-05T10:14:02.957Z,32.00
2023-03-05T10:19:10.975Z,32.20
2023-03-05T10:24:19.778Z,32.80
2023-03-05T10:29:45.798Z,32.50
2023-03-05T10:35:07.971Z,32.50
2023-03-05T10:40:21.985Z,32.70
2023-03-05T10:45:30.303Z,32.80
2023-03-05T10:50:37.773Z,32.80
2023-03-05T10:55:40.718Z,32.90
2023-03-05T11:00:59.663Z,33.00
2023-03-05T11:06:04.043Z,33.20
2023-03-05T11:11:13.181Z,33.30
2023-03-05T11:16:21.656Z,33.20
2023-03-05T11:21:27.887Z,33.40
2023-03-05T11:26:30.784Z,33.50
2023-03-05T11:31:34.959Z,33.50
2023-03-05T11:36:39.939Z,33.60
2023-03-05T11:41:45.782Z,33.60
2023-03-05T11:46:53.584Z,33.70
2023-03-05T11:52:03.960Z,33.70
2023-03-05T11:57:10.627Z,33.70
2023-03-05T12:02:20.960Z,33.80
2023-03-05T12:07:38.214Z,33.90
2023-03-05T12:12:46.851Z,33.90
2023-03-05T12:17:59.709Z,33.90
2023-03-05T12:23:02.604Z,34.00
2023-03-05T12:28:05.434Z,34.00
2023-03-05T12:33:31.401Z,34.20
2023-03-05T12:38:34.545Z,34.40
2023-03-05T12:43:37.355Z,34.40
2023-03-05T12:48:45.636Z,34.40
2023-03-05T12:53:52.095Z,34.40
2023-03-05T12:58:59.716Z,34.60
2023-03-05T13:04:10.623Z,34.70
2023-03-05T13:09:18.818Z,34.60
2023-03-05T13:14:38.235Z,34.60
2023-03-05T13:19:43.056Z,34.60
2023-03-05T13:24:46.918Z,34.60
2023-03-05T13:29:53.578Z,34.60
2023-03-05T13:35:00.025Z,34.70
2023-03-05T13:40:07.355Z,34.80
2023-03-05T13:45:25.737Z,34.80
2023-03-05T13:50:33.101Z,34.90
2023-03-05T13:55:36.010Z,34.80
2023-03-05T14:00:40.120Z,34.80
2023-03-05T14:05:46.218Z,34.90
2023-03-05T14:10:50.123Z,34.90
2023-03-05T14:16:05.539Z,35.00
2023-03-05T14:21:11.202Z,35.10
2023-03-05T14:26:29.374Z,35.10
2023-03-05T14:31:37.594Z,35.10
2023-03-05T14:36:48.773Z,35.10
2023-03-05T14:41:51.628Z,35.20
2023-03-05T14:46:54.473Z,35.10
2023-03-05T14:51:58.693Z,34.90
2023-03-05T14:57:01.522Z,34.90
2023-03-05T15:02:04.338Z,34.90
2023-03-05T15:07:11.932Z,34.90
2023-03-05T15:12:16.970Z,35.10
2023-03-05T15:17:22.414Z,35.00
2023-03-05T15:22:26.617Z,35.10
2023-03-05T15:27:29.471Z,34.90
2023-03-05T15:32:32.395Z,34.80
2023-03-05T15:37:36.563Z,34.80
2023-03-05T15:42:39.583Z,34.60
2023-03-05T15:47:42.444Z,35.00
2023-03-05T15:52:46.973Z,34.90
2023-03-05T15:57:52.385Z,35.00
2023-03-05T16:02:55.250Z,35.00
2023-03-05T16:08:01.045Z,34.90
2023-03-05T16:13:08.006Z,34.80
2023-03-05T16:18:13.414Z,35.00
2023-03-05T16:23:17.585Z,34.70
2023-03-05T16:28:20.474Z,34.70
2023-03-05T16:33:23.834Z,35.00
2023-03-05T16:38:28.028Z,34.90
2023-03-05T16:43:30.919Z,35.10
2023-03-05T16:48:35.797Z,35.20
2023-03-05T16:53:40.477Z,35.30
2023-03-05T16:58:43.686Z,35.00
2023-03-05T17:03:46.685Z,34.60
2023-03-05T17:08:51.836Z,34.00
2023-03-05T17:13:55.056Z,33.50
2023-03-05T17:18:57.979Z,33.20
2023-03-05T17:24:02.187Z,33.20
2023-03-05T17:29:05.719Z,33.50
2023-03-05T17:34:08.600Z,33.00
2023-03-05T17:39:13.142Z,33.00
2023-03-05T17:44:15.999Z,33.00
2023-03-05T17:49:18.813Z,32.90
2023-03-05T17:54:23.186Z,33.00
2023-03-05T17:59:26.797Z,32.90
2023-03-05T18:04:29.712Z,32.90
2023-03-05T18:09:34.013Z,32.70
2023-03-05T18:14:37.025Z,32.70
2023-03-05T18:19:40.122Z,32.70
2023-03-05T18:24:44.450Z,32.50
2023-03-05T18:29:47.316Z,32.80
2023-03-05T18:34:50.709Z,32.70
2023-03-05T18:39:54.972Z,32.70
2023-03-05T18:44:57.830Z,32.70
2023-03-05T18:50:00.678Z,32.80
2023-03-05T18:55:05.345Z,32.60
2023-03-05T19:00:09.533Z,32.50
2023-03-05T19:05:14.004Z,32.50
2023-03-05T19:10:18.854Z,32.50
2023-03-05T19:15:21.861Z,32.40
2023-03-05T19:20:24.848Z,32.40
2023-03-05T19:25:29.021Z,32.30
2023-03-05T19:30:31.883Z,32.20
2023-03-05T19:35:34.750Z,32.00
2023-03-05T19:40:41.347Z,32.00
2023-03-05T19:45:44.308Z,32.20
2023-03-05T19:50:47.216Z,32.10
2023-03-05T19:55:51.505Z,32.20
2023-03-05T20:00:54.326Z,32.40
2023-03-05T20:05:57.138Z,32.30
2023-03-05T20:11:01.822Z,32.30
2023-03-05T20:16:05.059Z,32.30
2023-03-05T20:21:07.996Z,32.20
2023-03-05T20:26:12.222Z,32.10
2023-03-05T20:31:18.214Z,32.20
2023-03-05T20:36:21.187Z,32.20
2023-03-05T20:41:26.086Z,32.20
2023-03-05T20:46:31.204Z,32.40
2023-03-05T20:51:36.151Z,32.30
2023-03-05T20:56:40.388Z,32.40
2023-03-05T21:01:43.275Z,32.40
2023-03-05T21:06:46.186Z,32.40
2023-03-05T21:11:50.380Z,32.40
2023-03-05T21:16:53.271Z,32.40
2023-03-05T21:21:56.132Z,32.30
2023-03-05T21:27:00.538Z,32.20
2023-03-05T21:32:04.017Z,32.30
2023-03-05T21:37:06.963Z,32.20
2023-03-05T21:42:11.786Z,32.10
2023-03-05T21:47:14.927Z,32.10
2023-03-05T21:52:17.804Z,32.00
2023-03-05T21:57:22.257Z,31.90
2023-03-05T22:02:25.490Z,31.80
2023-03-05T22:07:28.846Z,31.80
2023-03-05T22:12:43.684Z,31.90
2023-03-05T22:17:46.542Z,31.50
2023-03-05T22:22:49.391Z,31.50
2023-03-05T22:27:53.596Z,31.50
2023-03-05T22:32:56.483Z,31.40
2023-03-05T22:37:59.467Z,31.40
2023-03-05T22:43:03.919Z,31.40
2023-03-05T22:48:07.560Z,31.40
2023-03-05T22:53:10.365Z,31.40
2023-03-05T22:58:14.545Z,32.20
2023-03-05T23:03:17.434Z,31.60
2023-03-05T23:08:20.476Z,31.60
2023-03-05T23:13:24.656Z,31.50
2023-03-05T23:18:27.524Z,31.60
2023-03-05T23:23:30.390Z,31.60
2023-03-05T23:28:34.576Z,31.50
2023-03-05T23:33:37.396Z,31.60
2023-03-05T23:38:40.227Z,31.60
2023-03-05T23:43:44.403Z,32.10
2023-03-05T23:48:47.253Z,31.50
2023-03-05T23:53:50.078Z,31.50
2023-03-05T23:58:56.025Z,31.50
